Time;durP1;ratioP1;P1;durP2;ratioP2;P2;SDS_P1;SDS_P2;PMS_P1;PMS_P2;Temp;Humidity;BMP_temperature;BMP_pressure;BME280_temperature;BME280_humidity;BME280_pressure;Samples;Min_cycle;Max_cycle;Signal;HPM_P1;HPM_P2
2023/04/18 00:00:22;;;;;;;11.95;8.00;;;7.30;99.90;;;;;;5106279;27;20062;-64
2023/04/18 00:02:52;;;;;;;10.48;7.68;;;7.30;99.90;;;;;;5129813;27;20099;-66
2023/04/18 00:05:18;;;;;;;11.25;7.80;;;7.20;99.90;;;;;;5107875;27;20110;-66
2023/04/18 00:07:44;;;;;;;10.13;7.63;;;7.20;99.90;;;;;;5108266;27;20181;-66
2023/04/18 00:10:10;;;;;;;10.73;7.90;;;7.10;99.90;;;;;;5102501;27;20070;-67
2023/04/18 00:12:36;;;;;;;12.60;7.75;;;7.10;99.90;;;;;;5111040;27;20483;-69
2023/04/18 00:15:03;;;;;;;8.63;6.65;;;7.00;99.90;;;;;;5112516;27;20397;-65
2023/04/18 00:17:30;;;;;;;10.85;7.88;;;7.00;99.90;;;;;;5111366;27;20035;-67
2023/04/18 00:19:57;;;;;;;12.55;7.90;;;6.90;99.90;;;;;;5107373;27;20035;-68
2023/04/18 00:22:24;;;;;;;11.57;8.18;;;6.90;99.90;;;;;;5104676;27;20077;-65
2023/04/18 00:24:50;;;;;;;12.50;8.10;;;6.80;99.90;;;;;;5111381;27;20169;-67
2023/04/18 00:27:20;;;;;;;9.65;7.05;;;6.80;99.90;;;;;;5105823;27;20470;-69
2023/04/18 00:29:46;;;;;;;12.10;8.02;;;6.80;99.90;;;;;;5104218;27;20403;-64
2023/04/18 00:32:13;;;;;;;10.70;7.82;;;6.70;99.90;;;;;;5106532;27;20023;-68
2023/04/18 00:34:39;;;;;;;9.35;7.97;;;6.60;99.90;;;;;;5112064;27;20039;-67
2023/04/18 00:37:05;;;;;;;10.40;8.05;;;6.60;99.90;;;;;;5111348;27;20039;-68
2023/04/18 00:39:32;;;;;;;12.68;7.65;;;6.50;99.90;;;;;;5105956;27;20034;-64
2023/04/18 00:41:58;;;;;;;10.73;7.20;;;6.50;99.90;;;;;;5115780;27;20035;-69
2023/04/18 00:44:23;;;;;;;10.80;8.35;;;6.50;99.90;;;;;;5103768;27;20179;-66
2023/04/18 00:46:50;;;;;;;10.38;7.65;;;6.40;99.90;;;;;;5111322;27;20050;-66
2023/04/18 00:49:15;;;;;;;11.45;7.63;;;6.40;99.90;;;;;;5093689;27;20047;-65
2023/04/18 00:51:42;;;;;;;9.15;7.55;;;6.40;99.90;;;;;;5101022;27;20041;-66
2023/04/18 00:54:08;;;;;;;9.40;7.68;;;6.40;99.90;;;;;;5113113;28;20045;-66
2023/04/18 00:56:34;;;;;;;11.45;8.25;;;6.40;99.90;;;;;;5109840;27;20046;-64
2023/04/18 00:59:00;;;;;;;13.60;8.00;;;6.30;99.90;;;;;;5136681;27;20409;-67
2023/04/18 01:01:26;;;;;;;14.57;8.70;;;6.30;99.90;;;;;;5098799;27;20047;-66
2023/04/18 01:03:52;;;;;;;11.65;8.23;;;6.30;99.90;;;;;;5104829;27;21552;-66
2023/04/18 01:06:18;;;;;;;11.88;8.05;;;6.30;99.90;;;;;;5109130;27;20119;-66
2023/04/18 01:08:45;;;;;;;10.98;7.82;;;6.30;99.90;;;;;;5113865;27;20493;-66
2023/04/18 01:11:10;;;;;;;13.40;8.18;;;6.30;99.90;;;;;;5112153;27;20039;-68
2023/04/18 01:13:36;;;;;;;12.18;8.65;;;6.30;99.90;;;;;;5116265;27;20066;-66
2023/04/18 01:16:02;;;;;;;11.60;8.48;;;6.30;99.90;;;;;;5115519;27;20042;-68
2023/04/18 01:18:30;;;;;;;12.02;8.77;;;6.30;99.90;;;;;;5113618;27;20031;-65
2023/04/18 01:20:59;;;;;;;10.95;7.80;;;6.30;99.90;;;;;;5114011;27;21066;-65
2023/04/18 01:23:25;;;;;;;12.40;8.32;;;6.30;99.90;;;;;;5104758;27;20038;-66
2023/04/18 01:25:50;;;;;;;10.95;8.07;;;6.30;99.90;;;;;;5116712;27;20035;-66
2023/04/18 01:28:18;;;;;;;11.88;8.20;;;6.30;99.90;;;;;;5110807;27;20139;-66
2023/04/18 01:30:43;;;;;;;12.00;8.07;;;6.30;99.90;;;;;;5096824;27;20057;-67
2023/04/18 01:33:09;;;;;;;11.02;8.43;;;6.30;99.90;;;;;;5111997;27;20126;-68
2023/04/18 01:35:35;;;;;;;15.23;8.85;;;6.20;99.90;;;;;;5145925;27;20086;-68
2023/04/18 01:38:01;;;;;;;12.60;8.32;;;6.20;99.90;;;;;;5115540;27;20610;-64
2023/04/18 01:40:26;;;;;;;13.13;8.75;;;6.20;99.90;;;;;;5115997;27;20342;-68
2023/04/18 01:42:52;;;;;;;11.57;8.20;;;6.20;99.90;;;;;;5109631;27;20045;-67
2023/04/18 01:45:18;;;;;;;13.25;8.25;;;6.20;99.90;;;;;;5112596;27;20046;-66
2023/04/18 01:47:45;;;;;;;11.93;8.20;;;6.10;99.90;;;;;;5111688;27;20039;-66
2023/04/18 01:50:11;;;;;;;12.50;9.07;;;6.20;99.90;;;;;;5114004;27;20118;-68
2023/04/18 01:52:37;;;;;;;12.40;9.18;;;6.20;99.90;;;;;;5111812;27;20047;-66
2023/04/18 01:55:03;;;;;;;10.90;8.00;;;6.20;99.90;;;;;;5130745;27;20369;-68
2023/04/18 01:57:29;;;;;;;11.48;8.55;;;6.20;99.90;;;;;;5101149;27;20121;-67
2023/04/18 01:59:55;;;;;;;11.40;8.50;;;6.20;99.90;;;;;;5115260;27;20045;-66
2023/04/18 02:02:21;;;;;;;15.77;8.90;;;6.10;99.90;;;;;;5098000;27;20038;-68
2023/04/18 02:04:46;;;;;;;11.35;8.55;;;6.10;99.90;;;;;;5114989;27;20039;-66
2023/04/18 02:07:12;;;;;;;11.05;8.35;;;6.10;99.90;;;;;;5112794;27;20061;-65
2023/04/18 02:09:38;;;;;;;10.65;8.35;;;6.10;99.90;;;;;;5096187;27;20042;-67
2023/04/18 02:12:04;;;;;;;12.57;8.93;;;6.00;99.90;;;;;;5115611;27;20075;-66
2023/04/18 02:14:31;;;;;;;12.82;8.52;;;6.00;99.90;;;;;;5111888;27;20410;-66
2023/04/18 02:16:57;;;;;;;12.60;8.70;;;6.00;99.90;;;;;;5146053;27;20473;-64
2023/04/18 02:19:23;;;;;;;11.35;8.00;;;6.00;99.90;;;;;;5106700;27;20039;-66
2023/04/18 02:21:49;;;;;;;12.77;9.27;;;6.00;99.90;;;;;;5134717;27;20031;-64
2023/04/18 02:24:15;;;;;;;11.20;8.50;;;6.00;99.90;;;;;;5113243;27;20405;-64
2023/04/18 02:26:42;;;;;;;12.25;8.98;;;6.10;99.90;;;;;;5111383;27;20043;-65
2023/04/18 02:29:07;;;;;;;12.27;8.93;;;6.00;99.90;;;;;;5105390;27;20050;-67
2023/04/18 02:31:33;;;;;;;12.20;9.18;;;6.10;99.90;;;;;;5113416;27;20054;-66
2023/04/18 02:33:58;;;;;;;13.55;9.73;;;6.10;99.90;;;;;;5092627;27;20056;-67
2023/04/18 02:36:27;;;;;;;12.75;8.90;;;6.10;99.90;;;;;;5112203;27;20038;-65
2023/04/18 02:38:53;;;;;;;10.25;8.60;;;6.10;99.90;;;;;;5113342;27;20386;-68
2023/04/18 02:41:19;;;;;;;14.18;9.43;;;6.10;99.90;;;;;;5116631;27;20042;-68
2023/04/18 02:43:45;;;;;;;12.60;8.52;;;6.20;99.90;;;;;;5109508;27;20039;-65
2023/04/18 02:46:11;;;;;;;11.48;8.60;;;6.10;99.90;;;;;;5107156;27;20045;-64
2023/04/18 02:48:37;;;;;;;13.05;8.82;;;6.20;99.90;;;;;;5130888;27;20402;-67
2023/04/18 02:51:07;;;;;;;13.15;8.70;;;6.20;99.90;;;;;;5114060;27;20034;-66
2023/04/18 02:53:33;;;;;;;12.32;8.95;;;6.20;99.90;;;;;;5112513;27;20478;-65
2023/04/18 02:56:00;;;;;;;11.10;8.40;;;6.20;99.90;;;;;;5111614;27;20048;-64
2023/04/18 02:58:26;;;;;;;13.40;9.27;;;6.20;99.90;;;;;;5093598;27;20041;-67
2023/04/18 03:00:53;;;;;;;12.98;9.20;;;6.20;99.90;;;;;;5104383;27;20044;-64
2023/04/18 03:03:19;;;;;;;11.10;9.18;;;6.20;99.90;;;;;;5096706;27;20047;-65
2023/04/18 03:05:44;;;;;;;12.40;9.40;;;6.20;99.90;;;;;;5131044;27;20452;-66
2023/04/18 03:08:10;;;;;;;15.38;9.82;;;6.20;99.90;;;;;;5101718;27;20127;-68
2023/04/18 03:10:37;;;;;;;13.77;9.65;;;6.30;99.90;;;;;;5125584;27;20067;-65
2023/04/18 03:13:03;;;;;;;14.57;9.68;;;6.30;99.90;;;;;;5110599;27;20047;-65
2023/04/18 03:15:31;;;;;;;11.07;9.18;;;6.30;99.90;;;;;;5111824;27;20049;-65
2023/04/18 03:17:57;;;;;;;14.85;9.57;;;6.30;99.90;;;;;;5113322;27;20060;-65
2023/04/18 03:20:23;;;;;;;11.77;9.55;;;6.30;99.90;;;;;;5125345;27;20039;-67
2023/04/18 03:22:49;;;;;;;12.90;9.73;;;6.30;99.90;;;;;;5110403;27;20034;-66
2023/04/18 03:25:14;;;;;;;14.38;9.52;;;6.20;99.90;;;;;;5096771;27;20085;-67
2023/04/18 03:27:41;;;;;;;16.42;10.60;;;6.20;99.90;;;;;;5108831;27;20447;-65
2023/04/18 03:30:08;;;;;;;16.10;10.07;;;6.20;99.90;;;;;;5112931;27;20117;-67
2023/04/18 03:32:33;;;;;;;13.15;9.48;;;6.20;99.90;;;;;;5110341;27;20108;-66
2023/04/18 03:34:59;;;;;;;12.50;9.90;;;6.20;99.90;;;;;;5139340;27;20047;-67
2023/04/18 03:37:25;;;;;;;13.95;10.35;;;6.20;99.90;;;;;;5130636;27;20514;-67
2023/04/18 03:39:51;;;;;;;14.05;10.30;;;6.20;99.90;;;;;;5117672;27;20061;-66
2023/04/18 03:42:16;;;;;;;14.35;10.10;;;6.20;99.90;;;;;;5111826;27;20067;-67
2023/04/18 03:44:42;;;;;;;12.20;10.10;;;6.10;99.90;;;;;;5138324;27;20477;-65
2023/04/18 03:47:08;;;;;;;16.10;10.63;;;6.10;99.90;;;;;;5113485;27;20048;-65
2023/04/18 03:49:33;;;;;;;15.00;10.20;;;6.10;99.90;;;;;;5110938;27;20071;-66
2023/04/18 03:51:59;;;;;;;14.18;10.20;;;6.10;99.90;;;;;;5109628;27;20508;-66
2023/04/18 03:54:25;;;;;;;14.35;10.15;;;6.10;99.90;;;;;;5107164;27;20031;-66
2023/04/18 03:56:51;;;;;;;17.70;10.13;;;6.10;99.90;;;;;;5136274;27;20052;-66
2023/04/18 03:59:16;;;;;;;13.63;10.10;;;6.10;99.90;;;;;;5121299;27;20035;-67
2023/04/18 04:01:42;;;;;;;13.13;9.68;;;6.10;99.90;;;;;;5119869;27;20074;-66
2023/04/18 04:04:08;;;;;;;12.18;9.50;;;6.10;99.90;;;;;;5114609;27;20807;-67
2023/04/18 04:06:33;;;;;;;16.85;10.27;;;6.10;99.90;;;;;;5112399;27;20039;-67
2023/04/18 04:08:59;;;;;;;13.43;9.32;;;6.10;99.90;;;;;;5104750;27;20070;-66
2023/04/18 04:11:25;;;;;;;14.60;10.15;;;6.10;99.90;;;;;;5113602;27;20170;-69
2023/04/18 04:13:51;;;;;;;14.35;9.35;;;6.10;99.90;;;;;;5139726;27;20046;-65
2023/04/18 04:16:17;;;;;;;13.45;9.75;;;6.10;99.90;;;;;;5130760;27;20035;-65
2023/04/18 04:18:43;;;;;;;12.18;9.40;;;6.20;99.90;;;;;;5108554;27;20159;-68
2023/04/18 04:21:08;;;;;;;11.50;9.13;;;6.20;99.90;;;;;;5112356;27;20039;-66
2023/04/18 04:23:34;;;;;;;14.50;9.48;;;6.20;99.90;;;;;;5101342;27;20042;-65
2023/04/18 04:26:03;;;;;;;12.73;8.90;;;6.20;99.90;;;;;;5104907;27;20051;-65
2023/04/18 04:28:30;;;;;;;11.85;9.10;;;6.30;99.90;;;;;;5109864;27;20069;-66
2023/04/18 04:30:56;;;;;;;13.30;9.57;;;6.30;99.90;;;;;;5103878;27;20047;-68
2023/04/18 04:33:24;;;;;;;12.20;9.00;;;6.30;99.90;;;;;;5110560;27;20521;-68
2023/04/18 04:35:51;;;;;;;12.70;9.23;;;6.30;99.90;;;;;;5110112;27;20035;-66
2023/04/18 04:38:18;;;;;;;13.77;9.63;;;6.30;99.90;;;;;;5109913;27;20135;-69
2023/04/18 04:40:45;;;;;;;14.27;9.30;;;6.30;99.90;;;;;;5109349;27;20489;-67
2023/04/18 04:43:11;;;;;;;13.85;10.05;;;6.40;99.90;;;;;;5106455;27;20482;-64
2023/04/18 04:45:40;;;;;;;12.90;9.00;;;6.40;99.90;;;;;;5109602;27;20393;-67
2023/04/18 04:48:06;;;;;;;12.50;9.30;;;6.40;99.90;;;;;;5092289;27;20050;-67
2023/04/18 04:50:37;;;;;;;15.52;9.45;;;6.40;99.90;;;;;;5110587;27;20054;-66
2023/04/18 04:53:05;;;;;;;14.32;9.93;;;6.40;99.90;;;;;;5125867;27;20046;-66
2023/04/18 04:55:31;;;;;;;14.65;9.80;;;6.40;99.90;;;;;;5107129;28;20047;-66
2023/04/18 04:57:57;;;;;;;14.07;10.32;;;6.50;99.90;;;;;;5109012;27;20122;-65
2023/04/18 05:00:23;;;;;;;13.48;10.57;;;6.50;99.90;;;;;;5111103;27;20575;-67
2023/04/18 05:02:52;;;;;;;13.55;10.35;;;6.60;99.90;;;;;;5143032;27;20030;-66
2023/04/18 05:05:17;;;;;;;13.00;9.57;;;6.60;99.90;;;;;;5114341;27;20057;-66
2023/04/18 05:07:43;;;;;;;14.43;10.25;;;6.60;99.90;;;;;;5087903;28;20115;-67
2023/04/18 05:10:09;;;;;;;13.90;10.48;;;6.70;99.90;;;;;;5109268;28;20043;-66
2023/04/18 05:12:35;;;;;;;14.85;10.88;;;6.70;99.90;;;;;;5108161;28;20601;-65
2023/04/18 05:15:01;;;;;;;13.73;10.02;;;6.80;99.90;;;;;;5107696;28;20097;-68
2023/04/18 05:17:27;;;;;;;14.90;10.40;;;6.80;99.90;;;;;;5089966;28;20050;-67
2023/04/18 05:19:52;;;;;;;14.95;10.57;;;6.80;99.90;;;;;;5105354;28;20405;-66
2023/04/18 05:22:18;;;;;;;15.73;10.85;;;6.90;99.90;;;;;;5107441;28;20047;-64
2023/04/18 05:24:45;;;;;;;16.00;10.05;;;6.90;99.90;;;;;;5134752;27;20376;-68
2023/04/18 05:27:12;;;;;;;12.85;9.52;;;6.90;99.90;;;;;;5101334;28;20044;-66
2023/04/18 05:29:38;;;;;;;14.38;9.82;;;6.90;99.90;;;;;;5103595;28;20043;-67
2023/04/18 05:32:05;;;;;;;16.50;10.73;;;6.90;99.90;;;;;;5110939;28;20497;-66
2023/04/18 05:34:31;;;;;;;15.25;10.35;;;6.90;99.90;;;;;;5107588;28;20054;-64
2023/04/18 05:36:56;;;;;;;12.88;9.65;;;6.90;99.90;;;;;;5112432;28;20119;-65
2023/04/18 05:39:22;;;;;;;14.43;10.48;;;6.90;99.90;;;;;;5106777;28;20506;-67
2023/04/18 05:41:48;;;;;;;16.02;10.00;;;6.90;99.90;;;;;;5108155;28;20048;-68
2023/04/18 05:44:14;;;;;;;13.43;10.07;;;6.90;99.90;;;;;;5106915;28;20035;-68
2023/04/18 05:46:41;;;;;;;13.70;10.40;;;6.90;99.90;;;;;;5107032;28;20104;-67
2023/04/18 05:49:07;;;;;;;13.20;10.02;;;6.90;99.90;;;;;;5108528;28;20489;-68
2023/04/18 05:51:32;;;;;;;14.98;10.45;;;6.90;99.90;;;;;;5107219;28;20043;-68
2023/04/18 05:53:58;;;;;;;17.10;10.55;;;6.90;99.90;;;;;;5109081;27;20047;-67
2023/04/18 05:56:24;;;;;;;15.90;10.40;;;7.00;99.90;;;;;;5109399;28;20040;-66
2023/04/18 05:58:50;;;;;;;15.70;9.95;;;7.00;99.90;;;;;;5110381;27;20035;-67
2023/04/18 06:01:20;;;;;;;13.27;9.88;;;7.00;99.90;;;;;;5107585;27;20059;-67
2023/04/18 06:03:46;;;;;;;16.05;10.57;;;7.00;99.90;;;;;;5105498;27;20035;-66
2023/04/18 06:06:12;;;;;;;14.70;10.23;;;7.00;99.90;;;;;;5085020;28;20048;-67
2023/04/18 06:08:38;;;;;;;14.57;10.25;;;7.10;99.90;;;;;;5111591;27;20134;-66
2023/04/18 06:11:04;;;;;;;14.25;9.77;;;7.10;99.90;;;;;;5106091;27;20051;-69
2023/04/18 06:13:31;;;;;;;13.07;9.55;;;7.10;99.90;;;;;;5109238;27;20391;-69
2023/04/18 06:15:57;;;;;;;14.70;9.98;;;7.10;99.90;;;;;;5110586;28;20050;-67
2023/04/18 06:18:22;;;;;;;12.98;9.65;;;7.10;99.90;;;;;;5110596;27;20031;-67
2023/04/18 06:20:48;;;;;;;15.15;10.05;;;7.10;99.90;;;;;;5111176;27;20077;-68
2023/04/18 06:23:14;;;;;;;15.88;9.98;;;7.20;99.90;;;;;;5107524;28;20398;-68
2023/04/18 06:25:43;;;;;;;13.05;9.35;;;7.20;99.90;;;;;;5109249;27;20053;-68
2023/04/18 06:28:08;;;;;;;13.38;9.82;;;7.20;99.90;;;;;;5110488;27;20131;-69
2023/04/18 06:30:34;;;;;;;13.15;9.60;;;7.30;99.90;;;;;;5112210;28;20435;-68
2023/04/18 06:33:00;;;;;;;13.00;10.27;;;7.40;99.90;;;;;;5111803;28;20039;-68
2023/04/18 06:35:27;;;;;;;15.38;10.55;;;7.40;99.90;;;;;;5111792;28;20384;-67
2023/04/18 06:37:53;;;;;;;15.48;9.65;;;7.50;99.90;;;;;;5111806;28;20536;-67
2023/04/18 06:40:19;;;;;;;13.48;10.05;;;7.60;99.90;;;;;;5111429;28;20081;-69
2023/04/18 06:42:44;;;;;;;12.65;9.60;;;7.70;99.90;;;;;;5111487;28;20036;-67
2023/04/18 06:45:10;;;;;;;13.43;9.70;;;7.70;99.90;;;;;;5111455;28;20046;-69
2023/04/18 06:47:37;;;;;;;13.75;9.25;;;7.80;99.90;;;;;;5094896;28;20563;-69
2023/04/18 06:50:04;;;;;;;13.27;9.50;;;7.90;99.90;;;;;;5111252;28;20810;-68
2023/04/18 06:52:29;;;;;;;14.50;10.30;;;8.00;99.90;;;;;;5111511;28;20530;-70
2023/04/18 06:54:55;;;;;;;12.13;9.30;;;8.10;99.90;;;;;;5111375;28;20170;-67
2023/04/18 06:57:21;;;;;;;12.90;9.93;;;8.10;99.90;;;;;;5111169;28;20054;-68
2023/04/18 06:59:46;;;;;;;16.38;10.20;;;8.20;99.90;;;;;;5108352;28;20028;-68
2023/04/18 07:02:12;;;;;;;13.15;10.48;;;8.20;99.90;;;;;;5111151;28;20562;-69
2023/04/18 07:04:38;;;;;;;14.07;10.35;;;8.20;99.90;;;;;;5110461;28;20398;-66
2023/04/18 07:07:04;;;;;;;14.75;10.63;;;8.30;99.90;;;;;;5112522;27;20043;-69
2023/04/18 07:09:30;;;;;;;14.05;9.82;;;8.40;99.90;;;;;;5114418;27;20134;-69
2023/04/18 07:11:56;;;;;;;13.23;9.52;;;8.50;99.90;;;;;;5097404;27;20082;-69
2023/04/18 07:14:22;;;;;;;13.18;9.52;;;8.70;99.90;;;;;;5114348;27;20066;-69
2023/04/18 07:16:48;;;;;;;13.68;10.25;;;9.10;99.90;;;;;;5114041;27;20114;-69
2023/04/18 07:19:14;;;;;;;12.65;8.88;;;9.40;99.90;;;;;;5114034;27;20113;-66
2023/04/18 07:21:42;;;;;;;14.20;9.73;;;9.60;99.90;;;;;;5114209;27;20043;-66
2023/04/18 07:24:08;;;;;;;11.90;9.05;;;9.70;99.90;;;;;;5113925;27;20066;-69
2023/04/18 07:26:34;;;;;;;12.13;9.15;;;9.70;99.90;;;;;;5113997;27;20038;-67
2023/04/18 07:28:59;;;;;;;11.43;9.10;;;9.80;99.90;;;;;;5113948;27;20134;-67
2023/04/18 07:31:27;;;;;;;12.13;9.23;;;10.00;99.90;;;;;;5132194;27;20598;-70
2023/04/18 07:33:54;;;;;;;10.40;8.52;;;10.10;99.90;;;;;;5113371;27;20096;-69
2023/04/18 07:36:20;;;;;;;11.60;7.97;;;10.20;99.90;;;;;;5113428;27;20043;-69
2023/04/18 07:38:46;;;;;;;14.55;8.60;;;10.30;99.90;;;;;;5113729;27;20092;-67
2023/04/18 07:41:12;;;;;;;10.77;8.35;;;10.40;99.90;;;;;;5113877;27;20066;-67
2023/04/18 07:43:38;;;;;;;9.82;7.90;;;10.40;99.90;;;;;;5113503;27;20035;-69
2023/04/18 07:46:06;;;;;;;10.32;7.60;;;10.60;99.90;;;;;;5113824;27;20398;-69
2023/04/18 07:48:32;;;;;;;10.88;7.30;;;10.70;99.90;;;;;;5110595;27;20047;-69
2023/04/18 07:50:58;;;;;;;10.77;7.63;;;10.90;99.90;;;;;;5113325;27;20500;-65
2023/04/18 07:53:24;;;;;;;10.00;7.35;;;10.90;99.90;;;;;;5113730;27;20508;-68
2023/04/18 07:55:50;;;;;;;7.60;6.55;;;11.00;99.90;;;;;;5113331;27;20039;-67
2023/04/18 07:58:16;;;;;;;11.50;6.70;;;11.20;99.90;;;;;;5113635;27;20043;-67
2023/04/18 08:00:43;;;;;;;9.77;7.35;;;11.30;99.90;;;;;;5113505;27;20370;-69
2023/04/18 08:03:10;;;;;;;10.18;6.63;;;11.40;99.90;;;;;;5113347;27;20050;-69
2023/04/18 08:05:40;;;;;;;8.25;6.60;;;11.40;99.90;;;;;;5113185;27;20485;-67
2023/04/18 08:08:07;;;;;;;9.80;6.57;;;11.40;99.90;;;;;;5112971;27;20107;-67
2023/04/18 08:10:33;;;;;;;7.35;6.10;;;11.50;99.90;;;;;;5113295;27;20066;-69
2023/04/18 08:12:59;;;;;;;9.07;6.47;;;11.40;99.90;;;;;;5113287;27;20138;-69
2023/04/18 08:15:26;;;;;;;7.68;6.30;;;11.30;99.90;;;;;;5112950;27;20039;-67
2023/04/18 08:17:52;;;;;;;10.00;6.63;;;11.30;99.90;;;;;;5112057;27;20400;-67
2023/04/18 08:20:18;;;;;;;10.98;7.20;;;11.20;99.90;;;;;;5112939;27;20039;-70
2023/04/18 08:22:46;;;;;;;8.48;6.90;;;11.20;99.90;;;;;;5113208;27;20027;-68
2023/04/18 08:25:11;;;;;;;10.13;7.00;;;11.30;99.90;;;;;;5113136;27;20050;-68
2023/04/18 08:27:37;;;;;;;8.30;6.90;;;11.30;99.90;;;;;;5112644;27;20043;-67
2023/04/18 08:30:03;;;;;;;10.38;7.22;;;11.40;99.90;;;;;;5096128;27;20115;-68
2023/04/18 08:32:32;;;;;;;9.63;7.07;;;11.50;99.90;;;;;;5111894;27;20508;-68
2023/04/18 08:34:58;;;;;;;8.88;6.90;;;11.70;99.90;;;;;;5112842;27;20039;-68
2023/04/18 08:37:23;;;;;;;10.20;7.18;;;12.00;99.90;;;;;;5113011;27;20039;-66
2023/04/18 08:39:49;;;;;;;12.25;6.55;;;12.40;99.90;;;;;;5110990;27;20027;-68
2023/04/18 08:42:18;;;;;;;10.18;7.00;;;12.60;99.90;;;;;;5112730;27;20039;-67
2023/04/18 08:44:45;;;;;;;10.40;6.82;;;12.80;99.90;;;;;;5112870;27;20474;-68
2023/04/18 08:47:11;;;;;;;9.63;7.65;;;12.70;99.90;;;;;;5096096;27;20043;-72
2023/04/18 08:49:38;;;;;;;10.73;7.90;;;12.50;99.90;;;;;;5130827;27;20023;-69
2023/04/18 08:52:10;;;;;;;9.68;7.32;;;12.30;99.90;;;;;;5112746;27;20055;-67
2023/04/18 08:54:37;;;;;;;10.68;7.35;;;12.20;99.90;;;;;;5112494;27;20085;-70
2023/04/18 08:57:07;;;;;;;9.52;7.30;;;12.30;99.90;;;;;;5112751;27;20410;-67
2023/04/18 08:59:36;;;;;;;9.77;7.80;;;12.40;99.90;;;;;;5112798;27;20027;-68
2023/04/18 09:02:05;;;;;;;9.35;7.50;;;12.60;99.90;;;;;;5112548;27;20406;-66
2023/04/18 09:04:33;;;;;;;10.02;7.45;;;12.80;99.90;;;;;;5112333;27;20039;-67
2023/04/18 09:06:59;;;;;;;10.18;7.68;;;13.10;99.90;;;;;;5112438;27;20051;-69
2023/04/18 09:09:26;;;;;;;8.30;6.90;;;13.00;99.90;;;;;;5112174;27;20088;-68
2023/04/18 09:12:08;;;;;;;10.85;7.57;;;12.90;99.90;;;;;;5095222;27;20166;-66
2023/04/18 09:14:41;;;;;;;9.05;7.40;;;12.90;99.90;;;;;;5095180;27;20039;-67
2023/04/18 09:17:08;;;;;;;9.00;7.00;;;13.20;99.90;;;;;;5112316;27;20498;-67
2023/04/18 09:19:33;;;;;;;8.70;7.20;;;13.40;99.90;;;;;;5112468;27;20067;-69
2023/04/18 09:22:03;;;;;;;8.82;7.00;;;13.60;99.90;;;;;;5112144;27;20070;-70
2023/04/18 09:24:31;;;;;;;9.48;7.07;;;14.10;99.90;;;;;;5112239;27;20035;-67
2023/04/18 09:26:58;;;;;;;10.45;7.90;;;14.40;99.90;;;;;;5112182;27;20047;-67
2023/04/18 09:29:45;;;;;;;11.73;7.50;;;14.50;99.90;;;;;;5114430;27;20047;-68
2023/04/18 09:32:19;;;;;;;9.27;7.40;;;14.50;99.90;;;;;;5099576;27;20562;-67
2023/04/18 09:34:45;;;;;;;10.27;7.70;;;14.30;99.90;;;;;;5116198;27;20096;-67
2023/04/18 09:37:12;;;;;;;10.57;7.90;;;14.20;99.90;;;;;;5116195;27;20393;-67
2023/04/18 09:39:41;;;;;;;9.35;7.75;;;14.00;99.90;;;;;;5116087;27;20039;-67
2023/04/18 09:42:07;;;;;;;11.48;7.82;;;14.20;99.90;;;;;;5116060;27;20491;-69
2023/04/18 09:44:33;;;;;;;11.55;7.78;;;14.40;99.90;;;;;;5115884;27;20035;-69
2023/04/18 09:46:59;;;;;;;12.70;8.55;;;14.80;99.90;;;;;;5115711;27;20371;-68
2023/04/18 09:49:25;;;;;;;8.82;7.28;;;15.00;99.90;;;;;;5116117;27;20045;-67
2023/04/18 09:51:53;;;;;;;9.75;8.13;;;15.20;99.90;;;;;;5115890;27;20038;-66
2023/04/18 09:54:21;;;;;;;12.52;8.68;;;15.40;99.90;;;;;;5115824;27;20100;-69
2023/04/18 09:56:49;;;;;;;9.98;8.40;;;15.50;99.90;;;;;;5115649;27;20043;-67
2023/04/18 09:59:31;;;;;;;10.93;8.68;;;15.40;99.90;;;;;;5115439;27;20459;-68
2023/04/18 10:01:58;;;;;;;11.45;8.65;;;15.10;99.80;;;;;;5115424;27;20096;-67
2023/04/18 10:04:25;;;;;;;12.40;9.07;;;15.30;99.90;;;;;;5113533;27;20039;-69
2023/04/18 10:06:53;;;;;;;11.93;8.95;;;15.20;99.70;;;;;;5114210;27;20088;-68
2023/04/18 10:09:19;;;;;;;11.73;8.45;;;15.40;99.90;;;;;;5115252;27;20061;-67
2023/04/18 10:11:45;;;;;;;12.43;9.05;;;15.60;99.90;;;;;;5115838;27;20520;-67
2023/04/18 10:14:13;;;;;;;9.05;7.60;;;15.70;99.60;;;;;;5115388;27;20047;-70
2023/04/18 10:16:40;;;;;;;9.70;7.65;;;15.80;99.30;;;;;;5115509;27;20042;-69
2023/04/18 10:19:26;;;;;;;9.95;7.30;;;15.80;99.00;;;;;;5114814;27;20051;-69
2023/04/18 10:21:55;;;;;;;11.30;7.85;;;15.60;98.70;;;;;;5115125;27;20109;-66
2023/04/18 10:24:48;;;;;;;9.90;7.97;;;15.50;98.90;;;;;;5115054;27;20042;-68
2023/04/18 10:27:18;;;;;;;10.90;7.50;;;15.60;99.40;;;;;;5111177;27;20059;-69
2023/04/18 10:29:48;;;;;;;9.88;7.63;;;15.50;98.80;;;;;;5115253;27;20057;-68
2023/04/18 10:32:15;;;;;;;11.95;8.00;;;15.70;99.10;;;;;;5115328;27;20047;-69
2023/04/18 10:34:41;;;;;;;8.50;7.32;;;16.10;99.10;;;;;;5115417;27;20393;-68
2023/04/18 10:37:07;;;;;;;8.75;6.85;;;16.20;98.30;;;;;;5114549;27;20060;-69
2023/04/18 10:39:53;;;;;;;8.98;6.70;;;15.90;97.90;;;;;;5097204;27;20039;-68
2023/04/18 10:42:38;;;;;;;7.93;6.60;;;15.70;98.00;;;;;;5097255;27;20054;-67
2023/04/18 10:45:21;;;;;;;8.60;6.80;;;15.90;98.50;;;;;;5114922;27;20084;-68
2023/04/18 10:47:47;;;;;;;;;;;16.30;98.30;;;;;;5115712;27;20499;-71
2023/04/18 10:50:13;;;;;;;12.40;7.32;;;16.60;98.20;;;;;;5114595;27;19919;-67
2023/04/18 10:52:39;;;;;;;10.48;7.40;;;16.50;97.40;;;;;;5114726;27;20035;-71
2023/04/18 10:55:10;;;;;;;8.40;7.50;;;16.30;96.90;;;;;;5111787;27;20039;-69
2023/04/18 10:57:39;;;;;;;9.52;7.35;;;16.40;96.60;;;;;;5114423;27;20038;-67
2023/04/18 11:00:11;;;;;;;11.63;8.77;;;16.50;97.50;;;;;;5114909;27;20038;-68
2023/04/18 11:02:38;;;;;;;9.63;8.07;;;16.80;97.20;;;;;;5114798;27;20087;-69
2023/04/18 11:05:06;;;;;;;11.75;8.52;;;17.10;97.30;;;;;;5114712;27;20050;-68
2023/04/18 11:07:33;;;;;;;10.30;8.02;;;17.40;96.60;;;;;;5132747;27;20032;-69
2023/04/18 11:10:00;;;;;;;11.27;8.50;;;17.70;96.10;;;;;;5114652;27;20394;-66
2023/04/18 11:12:31;;;;;;;8.35;7.32;;;17.40;95.20;;;;;;5097638;27;20035;-67
2023/04/18 11:14:57;;;;;;;11.75;8.07;;;17.60;95.80;;;;;;5109763;27;20172;-70
2023/04/18 11:17:31;;;;;;;8.65;7.10;;;17.90;96.30;;;;;;5134923;27;20035;-68
2023/04/18 11:20:15;;;;;;;9.27;7.43;;;18.30;96.10;;;;;;5135205;27;20042;-67
2023/04/18 11:22:57;;;;;;;9.73;7.70;;;18.60;95.00;;;;;;5134669;27;20103;-69
2023/04/18 11:25:29;;;;;;;12.00;7.23;;;18.80;94.50;;;;;;5135107;27;20504;-69
2023/04/18 11:27:58;;;;;;;10.35;6.93;;;18.50;93.50;;;;;;5134871;27;20038;-69
2023/04/18 11:30:23;;;;;;;8.15;6.70;;;17.90;92.40;;;;;;5134803;27;20076;-68
2023/04/18 11:32:50;;;;;;;7.63;6.53;;;17.30;93.30;;;;;;5134587;27;20525;-68
2023/04/18 11:35:16;;;;;;;8.10;7.30;;;17.00;93.50;;;;;;5117872;27;20043;-68
2023/04/18 11:37:44;;;;;;;8.63;6.55;;;16.70;93.90;;;;;;5134525;27;20039;-68
2023/04/18 11:40:11;;;;;;;8.30;6.45;;;16.50;94.10;;;;;;5134535;27;20038;-67
2023/04/18 11:42:39;;;;;;;8.25;6.75;;;16.50;94.40;;;;;;5134273;27;20035;-68
2023/04/18 11:45:22;;;;;;;8.52;7.63;;;16.50;94.50;;;;;;5134631;27;20031;-68
2023/04/18 11:47:53;;;;;;;9.07;6.75;;;16.30;94.30;;;;;;5134415;27;20037;-67
2023/04/18 11:50:19;;;;;;;10.35;6.72;;;16.30;94.50;;;;;;5134401;27;20109;-67
2023/04/18 11:52:49;;;;;;;7.22;6.40;;;16.60;94.50;;;;;;5134085;27;20583;-68
2023/04/18 11:55:23;;;;;;;8.50;6.68;;;16.80;94.60;;;;;;5134719;27;20050;-67
2023/04/18 11:57:53;;;;;;;8.02;7.00;;;16.80;93.90;;;;;;5134100;27;20039;-69
2023/04/18 12:00:29;;;;;;;8.90;6.80;;;17.10;94.30;;;;;;5153016;27;20415;-67
2023/04/18 12:02:55;;;;;;;6.50;5.75;;;17.20;94.10;;;;;;5134142;27;20396;-70
2023/04/18 12:05:33;;;;;;;6.93;6.13;;;17.10;93.70;;;;;;5133999;27;20046;-67
2023/04/18 12:08:10;;;;;;;8.88;6.32;;;17.30;93.30;;;;;;5133716;27;20057;-69
2023/04/18 12:10:37;;;;;;;6.82;6.13;;;17.70;93.30;;;;;;5119116;27;20058;-69
2023/04/18 12:13:07;;;;;;;8.60;6.65;;;18.00;92.90;;;;;;5113428;27;20039;-67
2023/04/18 12:15:37;;;;;;;9.60;6.82;;;18.00;91.80;;;;;;5096077;27;20035;-68
2023/04/18 12:18:04;;;;;;;8.02;6.40;;;17.70;91.40;;;;;;5113328;27;20172;-68
2023/04/18 12:20:35;;;;;;;8.38;6.30;;;17.80;92.00;;;;;;5113251;27;20104;-69
2023/04/18 12:23:02;;;;;;;7.25;6.47;;;18.00;92.00;;;;;;5095717;27;20061;-67
2023/04/18 12:25:28;;;;;;;9.07;6.65;;;18.20;91.70;;;;;;5113176;27;20489;-69
2023/04/18 12:28:00;;;;;;;8.75;7.05;;;18.40;91.60;;;;;;5112901;27;20138;-69
2023/04/18 12:30:31;;;;;;;8.13;7.10;;;18.50;90.90;;;;;;5113030;27;20042;-70
2023/04/18 12:33:03;;;;;;;8.50;7.00;;;18.50;90.90;;;;;;5096115;27;20129;-69
2023/04/18 12:35:30;;;;;;;10.85;6.82;;;18.20;89.20;;;;;;5109151;27;20039;-67
2023/04/18 12:37:58;;;;;;;7.10;6.28;;;18.20;90.60;;;;;;5112708;27;20035;-69
2023/04/18 12:40:25;;;;;;;8.40;6.78;;;18.40;90.70;;;;;;5112564;27;20067;-68
2023/04/18 12:42:52;;;;;;;9.40;7.35;;;18.50;90.80;;;;;;5112106;27;20066;-69